createdAt,value
2022-09-03T00:01:59.975Z,100.00
2022-09-03T00:05:01.026Z,100.00
2022-09-03T00:07:58.263Z,100.00
2022-09-03T00:11:01.545Z,100.00
2022-09-03T00:13:40.774Z,100.00
2022-09-03T00:16:15.168Z,100.00
2022-09-03T00:18:53.379Z,100.00
2022-09-03T00:21:47.255Z,100.00
2022-09-03T00:24:20.874Z,100.00
2022-09-03T00:26:57.270Z,100.00
2022-09-03T00:29:42.771Z,100.00
2022-09-03T00:32:29.280Z,100.00
2022-09-03T00:35:07.351Z,100.00
2022-09-03T00:37:38.083Z,100.00
2022-09-03T00:40:22.097Z,100.00
2022-09-03T00:43:04.168Z,100.00
2022-09-03T00:46:20.659Z,100.00
2022-09-03T00:49:08.317Z,100.00
2022-09-03T00:51:46.316Z,100.00
2022-09-03T00:54:56.782Z,100.00
2022-09-03T00:58:10.790Z,100.00
2022-09-03T01:00:44.631Z,100.00
2022-09-03T01:03:32.462Z,100.00
2022-09-03T01:06:23.475Z,100.00
2022-09-03T01:09:13.592Z,100.00
2022-09-03T01:12:07.778Z,100.00
2022-09-03T01:14:46.014Z,100.00
2022-09-03T01:17:30.573Z,100.00
2022-09-03T01:20:35.413Z,100.00
2022-09-03T01:23:26.013Z,100.00
2022-09-03T01:26:10.158Z,100.00
2022-09-03T01:29:07.720Z,100.00
2022-09-03T01:31:40.100Z,100.00
2022-09-03T01:34:38.215Z,100.00
2022-09-03T01:37:29.662Z,100.00
2022-09-03T01:40:11.238Z,100.00
2022-09-03T01:43:02.402Z,100.00
2022-09-03T01:45:51.483Z,100.00
2022-09-03T01:48:34.599Z,100.00
2022-09-03T01:51:14.735Z,100.00
2022-09-03T01:53:47.071Z,100.00
2022-09-03T01:57:17.252Z,100.00
2022-09-03T02:00:14.909Z,100.00
2022-09-03T02:02:52.453Z,100.00
2022-09-03T02:05:25.924Z,100.00
2022-09-03T02:08:07.491Z,100.00
2022-09-03T02:10:48.138Z,100.00
2022-09-03T02:13:28.255Z,100.00
2022-09-03T02:16:04.866Z,100.00
2022-09-03T02:18:42.641Z,100.00
2022-09-03T02:21:12.263Z,100.00
2022-09-03T02:23:43.242Z,100.00
2022-09-03T02:26:14.930Z,100.00
2022-09-03T02:28:44.424Z,100.00
2022-09-03T02:31:16.419Z,100.00
2022-09-03T02:33:48.756Z,100.00
2022-09-03T02:36:22.372Z,100.00
2022-09-03T02:38:54.401Z,100.00
2022-09-03T02:41:25.564Z,100.00
2022-09-03T02:44:26.852Z,100.00
2022-09-03T02:47:06.291Z,100.00
2022-09-03T02:49:36.327Z,100.00
2022-09-03T02:52:10.861Z,100.00
2022-09-03T02:54:41.351Z,100.00
2022-09-03T02:57:13.893Z,100.00
2022-09-03T02:59:47.080Z,100.00
2022-09-03T03:02:16.608Z,100.00
2022-09-03T03:04:46.067Z,100.00
2022-09-03T03:07:15.261Z,100.00
2022-09-03T03:09:45.306Z,100.00
2022-09-03T03:12:14.712Z,100.00
2022-09-03T03:14:44.007Z,100.00
2022-09-03T03:17:13.437Z,100.00
2022-09-03T03:19:42.649Z,100.00
2022-09-03T03:22:11.729Z,100.00
2022-09-03T03:24:41.126Z,100.00
2022-09-03T03:27:12.106Z,100.00
2022-09-03T03:29:42.060Z,99.64
2022-09-03T03:32:11.256Z,99.75
2022-09-03T03:34:41.785Z,99.85
2022-09-03T03:37:11.176Z,98.53
2022-09-03T03:39:40.697Z,98.68
2022-09-03T03:42:10.412Z,97.94
2022-09-03T03:44:39.509Z,97.54
2022-09-03T03:47:08.814Z,97.16
2022-09-03T03:49:39.234Z,97.16
2022-09-03T03:52:08.565Z,96.92
2022-09-03T03:57:41.452Z,95.80
2022-09-03T04:00:11.374Z,95.19
2022-09-03T04:02:43.595Z,94.88
2022-09-03T04:05:13.217Z,94.00
2022-09-03T04:07:42.237Z,93.57
2022-09-03T04:10:11.917Z,93.91
2022-09-03T04:12:41.680Z,92.41
2022-09-03T04:15:11.321Z,93.00
2022-09-03T04:17:40.935Z,92.89
2022-09-03T04:20:11.205Z,92.58
2022-09-03T04:22:40.750Z,90.69
2022-09-03T04:25:10.321Z,90.45
2022-09-03T04:27:39.694Z,91.53
2022-09-03T04:30:09.832Z,87.00
2022-09-03T04:32:54.683Z,86.07
2022-09-03T04:35:26.428Z,87.16
2022-09-03T04:37:56.584Z,83.01
2022-09-03T04:40:26.332Z,83.67
2022-09-03T04:43:00.915Z,84.02
2022-09-03T04:45:31.003Z,82.50
2022-09-03T04:48:06.183Z,82.83
2022-09-03T04:50:36.692Z,82.01
2022-09-03T04:53:08.448Z,78.86
2022-09-03T04:55:39.176Z,80.61
2022-09-03T04:58:11.917Z,79.88
2022-09-03T05:00:41.398Z,77.92
2022-09-03T05:03:10.538Z,72.85
2022-09-03T05:05:48.590Z,74.74
2022-09-03T05:08:20.041Z,72.75
2022-09-03T05:10:49.930Z,70.99
2022-09-03T05:13:24.417Z,70.87
2022-09-03T05:15:54.361Z,70.25
2022-09-03T05:18:24.110Z,69.42
2022-09-03T05:21:19.534Z,69.05
2022-09-03T05:23:53.963Z,68.84
2022-09-03T05:26:28.708Z,67.07
2022-09-03T05:29:00.641Z,66.51
2022-09-03T05:31:33.507Z,68.40
2022-09-03T05:34:04.921Z,63.99
2022-09-03T05:36:37.017Z,65.81
2022-09-03T05:39:06.459Z,65.35
2022-09-03T05:41:35.829Z,65.72
2022-09-03T05:44:07.538Z,64.41
2022-09-03T05:46:38.753Z,66.34
2022-09-03T05:49:09.285Z,65.12
2022-09-03T05:51:43.683Z,66.33
2022-09-03T05:54:13.264Z,65.70
2022-09-03T05:56:43.495Z,64.83
2022-09-03T05:59:15.220Z,67.11
2022-09-03T06:01:50.955Z,65.79
2022-09-03T06:04:22.430Z,63.03
2022-09-03T06:06:51.958Z,63.53
2022-09-03T06:09:23.725Z,64.64
2022-09-03T06:11:57.372Z,63.14
2022-09-03T06:14:28.615Z,63.29
2022-09-03T06:16:58.203Z,60.81
2022-09-03T06:19:27.437Z,64.34
2022-09-03T06:21:56.812Z,63.42
2022-09-03T06:24:28.630Z,63.51
2022-09-03T06:26:59.336Z,62.42
2022-09-03T06:29:30.774Z,63.07
2022-09-03T06:32:05.054Z,61.48
2022-09-03T06:34:34.028Z,61.15
2022-09-03T06:37:03.339Z,60.64
2022-09-03T06:39:33.168Z,59.56
2022-09-03T06:42:02.434Z,58.43
2022-09-03T06:44:37.669Z,58.05
2022-09-03T06:47:06.976Z,58.86
2022-09-03T06:49:36.169Z,59.94
2022-09-03T06:52:05.395Z,60.43
2022-09-03T06:54:34.982Z,57.83
2022-09-03T06:57:07.440Z,58.28
2022-09-03T06:59:37.374Z,58.52
2022-09-03T07:02:08.096Z,59.02
2022-09-03T07:04:37.752Z,56.74
2022-09-03T07:07:07.055Z,58.30
2022-09-03T07:09:39.510Z,55.39
2022-09-03T07:12:12.030Z,57.68
2022-09-03T07:14:41.856Z,58.25
2022-09-03T07:17:12.606Z,56.31
2022-09-03T07:19:41.785Z,54.65
2022-09-03T07:22:11.975Z,57.55
2022-09-03T07:24:41.534Z,57.38
2022-09-03T07:27:14.430Z,58.93
2022-09-03T07:29:44.386Z,58.14
2022-09-03T07:32:13.511Z,57.80
2022-09-03T07:34:42.651Z,57.47
2022-09-03T07:37:12.580Z,58.21
2022-09-03T07:39:42.539Z,57.89
2022-09-03T07:42:12.244Z,58.15
2022-09-03T07:44:41.436Z,59.63
2022-09-03T07:47:11.873Z,58.24
2022-09-03T07:49:41.228Z,59.08
2022-09-03T07:52:12.036Z,58.36
2022-09-03T07:54:43.488Z,57.52
2022-09-03T07:57:12.970Z,56.49
2022-09-03T07:59:43.064Z,57.25
2022-09-03T08:02:12.553Z,56.65
2022-09-03T08:04:42.640Z,56.65
2022-09-03T08:07:11.804Z,55.74
2022-09-03T08:09:41.950Z,56.46
2022-09-03T08:12:11.150Z,58.59
2022-09-03T08:14:40.374Z,54.11
2022-09-03T08:17:09.921Z,56.31
2022-09-03T08:19:38.826Z,54.35
2022-09-03T08:22:08.057Z,55.67
2022-09-03T08:24:37.989Z,55.27
2022-09-03T08:27:07.039Z,53.17
2022-09-03T08:29:36.357Z,54.66
2022-09-03T08:32:06.699Z,54.17
2022-09-03T08:34:36.424Z,54.59
2022-09-03T08:37:07.357Z,55.88
2022-09-03T08:39:37.028Z,56.41
2022-09-03T08:42:28.338Z,56.02
2022-09-03T08:45:04.495Z,57.33
2022-09-03T08:47:48.192Z,55.34
2022-09-03T08:50:40.417Z,55.33
2022-09-03T08:53:19.680Z,57.51
2022-09-03T08:55:55.104Z,58.31
2022-09-03T08:58:29.009Z,57.63
2022-09-03T09:01:28.707Z,54.76
2022-09-03T09:04:05.676Z,55.31
2022-09-03T09:07:06.990Z,55.47
2022-09-03T09:09:49.988Z,54.72
2022-09-03T09:12:44.044Z,54.00
2022-09-03T09:15:39.045Z,55.13
2022-09-03T09:18:23.883Z,55.35
2022-09-03T09:21:09.831Z,57.46
2022-09-03T09:23:47.731Z,58.22
2022-09-03T09:26:22.918Z,59.07
2022-09-03T09:29:00.132Z,59.87
2022-09-03T09:31:32.009Z,60.38
2022-09-03T09:34:09.781Z,60.22
2022-09-03T09:36:50.782Z,59.48
2022-09-03T09:39:20.529Z,56.69
2022-09-03T09:42:10.438Z,57.25
2022-09-03T09:44:42.692Z,57.22
2022-09-03T09:47:36.080Z,56.82
2022-09-03T09:50:05.973Z,57.96
2022-09-03T09:53:15.639Z,55.71
2022-09-03T09:55:57.361Z,57.75
2022-09-03T09:58:31.764Z,57.47
2022-09-03T10:01:04.929Z,58.58
2022-09-03T10:03:38.776Z,55.45
2022-09-03T10:06:34.143Z,57.73
2022-09-03T10:09:16.961Z,56.64
2022-09-03T10:11:55.129Z,57.39
2022-09-03T10:14:36.130Z,52.79
2022-09-03T10:17:40.890Z,52.21
2022-09-03T10:20:40.561Z,55.95
2022-09-03T10:23:19.869Z,56.55
2022-09-03T10:26:05.475Z,56.67
2022-09-03T10:28:42.660Z,57.46
2022-09-03T10:31:49.285Z,58.32
2022-09-03T10:34:21.971Z,58.80
2022-09-03T10:37:04.160Z,57.82
2022-09-03T10:39:55.214Z,58.93
2022-09-03T10:42:48.256Z,59.40
2022-09-03T10:45:30.383Z,60.37
2022-09-03T10:48:41.761Z,58.82
2022-09-03T10:51:25.446Z,59.00
2022-09-03T10:54:33.633Z,59.22
2022-09-03T10:57:15.445Z,57.83
2022-09-03T11:00:12.030Z,61.03
2022-09-03T11:02:44.748Z,61.67
2022-09-03T11:05:50.662Z,65.22
2022-09-03T11:08:29.936Z,67.28
2022-09-03T11:11:17.625Z,67.76
2022-09-03T11:13:56.271Z,68.99
2022-09-03T11:16:33.744Z,69.26
2022-09-03T11:19:09.447Z,69.07
2022-09-03T11:21:43.392Z,69.97
2022-09-03T11:24:15.678Z,70.14
2022-09-03T11:26:52.802Z,69.47
2022-09-03T11:29:43.933Z,70.61
2022-09-03T11:32:25.174Z,70.51
2022-09-03T11:34:56.476Z,71.06
2022-09-03T11:37:27.262Z,71.67
2022-09-03T11:40:01.159Z,72.06
2022-09-03T11:42:38.591Z,72.78
2022-09-03T11:45:39.873Z,73.46
2022-09-03T11:48:48.818Z,73.95
2022-09-03T11:51:33.399Z,73.51
2022-09-03T11:54:14.378Z,73.54
2022-09-03T11:56:44.113Z,73.02
2022-09-03T12:02:37.198Z,73.63
2022-09-03T12:05:15.118Z,73.08
2022-09-03T12:08:08.895Z,73.50
2022-09-03T12:10:50.863Z,73.39
2022-09-03T12:13:48.398Z,74.38
2022-09-03T12:16:43.087Z,75.19
2022-09-03T12:19:37.546Z,75.78
2022-09-03T12:22:07.411Z,76.05
2022-09-03T12:24:39.056Z,76.60
2022-09-03T12:27:12.433Z,76.12
2022-09-03T12:29:57.697Z,77.08
2022-09-03T12:32:28.362Z,77.34
2022-09-03T12:34:57.811Z,77.17
2022-09-03T12:40:32.148Z,76.90
2022-09-03T12:46:10.673Z,78.75
2022-09-03T12:48:43.990Z,79.61
2022-09-03T12:54:05.043Z,81.35
2022-09-03T12:56:36.596Z,81.91
2022-09-03T12:59:12.454Z,82.71
2022-09-03T13:01:50.540Z,83.03
2022-09-03T13:04:31.654Z,83.08
2022-09-03T13:07:28.901Z,83.30
2022-09-03T13:10:05.710Z,84.83
2022-09-03T13:12:44.592Z,84.52
2022-09-03T13:15:29.309Z,84.88
2022-09-03T13:18:10.139Z,85.70
2022-09-03T13:21:03.438Z,85.29
2022-09-03T13:23:51.823Z,85.89
2022-09-03T13:27:00.027Z,86.80
2022-09-03T13:29:38.119Z,87.31
2022-09-03T13:32:52.321Z,85.42
2022-09-03T13:35:41.486Z,86.39
2022-09-03T13:38:23.727Z,87.03
2022-09-03T13:41:20.741Z,85.81
2022-09-03T13:44:11.173Z,86.46
2022-09-03T13:47:04.521Z,86.27
2022-09-03T13:50:03.674Z,86.29
2022-09-03T13:52:58.228Z,87.95
2022-09-03T13:55:39.888Z,87.70
2022-09-03T13:58:54.326Z,87.35
2022-09-03T14:01:45.727Z,86.95
2022-09-03T14:04:31.513Z,84.94
2022-09-03T14:07:11.498Z,81.46
2022-09-03T14:10:17.392Z,79.47
2022-09-03T14:12:52.449Z,78.12
2022-09-03T14:15:51.298Z,77.61
2022-09-03T14:18:44.917Z,76.50
2022-09-03T14:21:30.773Z,77.80
2022-09-03T14:24:16.183Z,76.03
2022-09-03T14:27:03.561Z,75.96
2022-09-03T14:29:35.696Z,76.09
2022-09-03T14:32:04.832Z,76.48
2022-09-03T14:34:43.084Z,76.54
2022-09-03T14:37:36.524Z,77.44
2022-09-03T14:40:14.988Z,77.97
2022-09-03T14:42:50.613Z,77.67
2022-09-03T14:45:29.406Z,75.37
2022-09-03T14:48:07.780Z,75.43
2022-09-03T14:50:55.073Z,73.03
2022-09-03T14:53:42.852Z,71.14
2022-09-03T14:56:20.704Z,68.81
2022-09-03T14:59:16.890Z,68.77
2022-09-03T15:01:58.186Z,68.75
2022-09-03T15:05:02.674Z,68.05
2022-09-03T15:07:35.874Z,68.28
2022-09-03T15:10:47.779Z,68.91
2022-09-03T15:13:42.915Z,68.68
2022-09-03T15:16:42.160Z,69.06
2022-09-03T15:19:49.034Z,69.29
2022-09-03T15:22:36.782Z,72.97
2022-09-03T15:25:25.309Z,71.92
2022-09-03T15:28:03.477Z,72.50
2022-09-03T15:30:51.292Z,73.73
2022-09-03T15:33:33.108Z,74.93
2022-09-03T15:36:18.724Z,75.30
2022-09-03T15:39:05.090Z,75.20
2022-09-03T15:41:51.813Z,76.15
2022-09-03T15:44:21.821Z,76.83
2022-09-03T15:47:51.628Z,76.48
2022-09-03T15:50:30.746Z,76.04
2022-09-03T15:53:17.951Z,76.35
2022-09-03T15:55:49.792Z,77.40
2022-09-03T15:58:44.340Z,78.01
2022-09-03T16:01:38.547Z,77.15
2022-09-03T16:04:44.449Z,76.75
2022-09-03T16:07:17.269Z,77.72
2022-09-03T16:10:24.763Z,77.71
2022-09-03T16:13:02.305Z,79.40
2022-09-03T16:15:35.636Z,78.64
2022-09-03T16:18:56.823Z,78.15
2022-09-03T16:21:34.984Z,78.51
2022-09-03T16:24:35.914Z,78.30
2022-09-03T16:27:16.741Z,79.44
2022-09-03T16:30:04.148Z,79.95
2022-09-03T16:32:45.567Z,80.79
2022-09-03T16:35:37.403Z,80.84
2022-09-03T16:38:29.604Z,81.05
2022-09-03T16:41:14.400Z,80.25
2022-09-03T16:44:03.674Z,80.01
2022-09-03T16:46:56.595Z,80.79
2022-09-03T16:49:44.007Z,81.36
2022-09-03T16:52:37.785Z,81.18
2022-09-03T16:55:29.137Z,81.74
2022-09-03T16:58:11.093Z,82.29
2022-09-03T17:01:21.752Z,83.64
2022-09-03T17:04:06.280Z,83.95
2022-09-03T17:06:41.609Z,83.97
2022-09-03T17:09:41.078Z,83.89
2022-09-03T17:12:45.963Z,84.13
2022-09-03T17:15:15.633Z,83.29
2022-09-03T17:18:36.486Z,82.44
2022-09-03T17:21:28.875Z,83.52
2022-09-03T17:24:10.362Z,83.42
2022-09-03T17:27:04.367Z,84.08
2022-09-03T17:29:45.726Z,84.20
2022-09-03T17:32:33.312Z,83.85
2022-09-03T17:35:27.959Z,84.38
2022-09-03T17:38:27.481Z,85.58
2022-09-03T17:41:38.078Z,86.06
2022-09-03T17:44:22.713Z,86.56
2022-09-03T17:47:00.916Z,87.20
2022-09-03T17:49:53.684Z,87.39
2022-09-03T17:52:28.885Z,87.97
2022-09-03T17:55:03.258Z,87.98
2022-09-03T17:57:45.751Z,87.40
2022-09-03T18:00:27.208Z,87.24
2022-09-03T18:03:02.331Z,88.63
2022-09-03T18:05:44.363Z,88.45
2022-09-03T18:08:20.230Z,89.75
2022-09-03T18:11:21.562Z,89.68
2022-09-03T18:14:17.845Z,90.11
2022-09-03T18:17:12.975Z,88.65
2022-09-03T18:20:12.334Z,90.41
2022-09-03T18:23:25.364Z,89.77
2022-09-03T18:26:27.248Z,90.52
2022-09-03T18:29:23.583Z,92.24
2022-09-03T18:32:11.211Z,92.11
2022-09-03T18:35:00.074Z,91.25
2022-09-03T18:37:48.238Z,91.30
2022-09-03T18:40:46.738Z,92.48
2022-09-03T18:43:54.105Z,92.83
2022-09-03T18:50:45.050Z,93.68
2022-09-03T18:53:47.161Z,94.61
2022-09-03T18:56:46.020Z,93.82
2022-09-03T18:59:51.724Z,94.08
2022-09-03T19:03:04.004Z,94.63
2022-09-03T19:06:02.106Z,94.46
2022-09-03T19:09:09.466Z,93.86
2022-09-03T19:12:19.079Z,95.15
2022-09-03T19:15:18.196Z,95.95
2022-09-03T19:18:27.568Z,97.00
2022-09-03T19:21:33.397Z,96.04
2022-09-03T19:24:22.052Z,96.12
2022-09-03T19:27:53.418Z,96.64
2022-09-03T19:30:50.645Z,97.11
2022-09-03T19:34:06.438Z,97.99
2022-09-03T19:37:20.552Z,96.79
2022-09-03T19:40:33.336Z,97.41
2022-09-03T19:43:42.076Z,96.89
2022-09-03T19:46:39.238Z,96.85
2022-09-03T19:49:37.315Z,97.00
2022-09-03T19:52:49.958Z,96.81
2022-09-03T19:55:52.761Z,97.10
2022-09-03T19:58:44.475Z,95.94
2022-09-03T20:01:33.654Z,95.94
2022-09-03T20:04:31.679Z,96.45
2022-09-03T20:07:25.682Z,96.24
2022-09-03T20:10:17.202Z,95.83
2022-09-03T20:12:55.893Z,95.83
2022-09-03T20:15:32.257Z,95.40
2022-09-03T20:18:22.702Z,95.70
2022-09-03T20:21:20.182Z,95.03
2022-09-03T20:24:05.861Z,95.05
2022-09-03T20:27:15.106Z,95.50
2022-09-03T20:30:23.915Z,94.83
2022-09-03T20:32:59.327Z,95.42
2022-09-03T20:36:06.934Z,95.17
2022-09-03T20:39:12.630Z,95.50
2022-09-03T20:42:04.371Z,96.28
2022-09-03T20:45:07.570Z,94.65
2022-09-03T20:47:51.605Z,94.26
2022-09-03T20:50:44.875Z,94.77
2022-09-03T20:53:53.430Z,95.17
2022-09-03T20:56:39.122Z,95.34
2022-09-03T20:59:33.286Z,94.64
2022-09-03T21:02:19.579Z,94.61
2022-09-03T21:05:17.995Z,94.47
2022-09-03T21:07:56.296Z,94.88
2022-09-03T21:10:34.982Z,94.94
2022-09-03T21:13:38.525Z,95.68
2022-09-03T21:16:37.320Z,94.61
2022-09-03T21:19:27.615Z,97.16
2022-09-03T21:22:19.674Z,98.41
2022-09-03T21:25:01.892Z,98.24
2022-09-03T21:27:43.370Z,98.11
2022-09-03T21:30:19.874Z,99.27
2022-09-03T21:33:20.968Z,100.00
2022-09-03T21:36:27.520Z,99.96
2022-09-03T21:39:02.867Z,100.00
2022-09-03T21:41:41.490Z,100.00
2022-09-03T21:44:18.380Z,99.95
2022-09-03T21:47:08.119Z,99.18
2022-09-03T21:49:48.892Z,99.95
2022-09-03T21:52:23.202Z,99.65
2022-09-03T21:54:53.390Z,99.85
2022-09-03T21:57:43.936Z,99.63
2022-09-03T22:00:22.174Z,99.68
2022-09-03T22:02:52.001Z,100.00
2022-09-03T22:05:22.394Z,100.00
2022-09-03T22:08:10.547Z,100.00
2022-09-03T22:10:55.940Z,100.00
2022-09-03T22:13:32.843Z,100.00
2022-09-03T22:16:18.965Z,100.00
2022-09-03T22:18:51.355Z,100.00
2022-09-03T22:21:20.319Z,100.00
2022-09-03T22:24:24.293Z,100.00
2022-09-03T22:27:12.129Z,100.00
2022-09-03T22:30:03.959Z,100.00
2022-09-03T22:33:03.783Z,100.00
2022-09-03T22:35:51.374Z,100.00
2022-09-03T22:38:47.646Z,100.00
2022-09-03T22:41:21.311Z,100.00
2022-09-03T22:44:12.407Z,100.00
2022-09-03T22:47:12.546Z,100.00
2022-09-03T22:49:58.340Z,100.00
2022-09-03T22:52:36.565Z,100.00
2022-09-03T22:55:11.220Z,100.00
2022-09-03T22:58:03.992Z,100.00
2022-09-03T23:00:44.251Z,100.00
2022-09-03T23:03:20.733Z,100.00
2022-09-03T23:05:57.959Z,100.00
2022-09-03T23:08:52.011Z,100.00
2022-09-03T23:11:49.400Z,100.00
2022-09-03T23:14:29.916Z,100.00
2022-09-03T23:17:14.537Z,100.00
2022-09-03T23:19:51.974Z,100.00
2022-09-03T23:22:35.653Z,100.00
2022-09-03T23:25:12.272Z,100.00
2022-09-03T23:27:50.906Z,100.00
2022-09-03T23:30:21.026Z,100.00
2022-09-03T23:32:59.215Z,100.00
2022-09-03T23:35:31.671Z,100.00
2022-09-03T23:38:31.585Z,100.00
2022-09-03T23:41:08.249Z,100.00
2022-09-03T23:44:02.868Z,100.00
2022-09-03T23:46:45.844Z,100.00
2022-09-03T23:49:37.857Z,100.00
2022-09-03T23:52:25.549Z,100.00
2022-09-03T23:55:15.143Z,100.00
2022-09-03T23:57:59.754Z,100.00
